createdAt,value
2023-02-11T00:01:37.539Z,38.92
2023-02-11T00:04:08.820Z,38.85
2023-02-11T00:06:37.997Z,38.69
2023-02-11T00:09:06.522Z,38.72
2023-02-11T00:11:34.553Z,39.25
2023-02-11T00:14:04.915Z,39.82
2023-02-11T00:16:34.935Z,39.30
2023-02-11T00:19:06.916Z,39.21
2023-02-11T00:21:36.960Z,39.47
2023-02-11T00:24:04.471Z,39.67
2023-02-11T00:26:34.766Z,39.56
2023-02-11T00:29:05.485Z,39.94
2023-02-11T00:31:33.691Z,40.13
2023-02-11T00:34:05.938Z,39.91
2023-02-11T00:36:33.286Z,40.15
2023-02-11T00:39:01.135Z,39.94
2023-02-11T00:41:28.778Z,40.02
2023-02-11T00:43:56.035Z,39.76
2023-02-11T00:46:28.588Z,40.26
2023-02-11T00:48:58.049Z,40.08
2023-02-11T00:51:27.211Z,40.22
2023-02-11T00:53:55.172Z,39.95
2023-02-11T00:56:23.698Z,40.25
2023-02-11T00:59:54.983Z,40.72
2023-02-11T01:02:23.046Z,40.22
2023-02-11T01:04:51.167Z,40.57
2023-02-11T01:07:21.729Z,40.76
2023-02-11T01:09:49.312Z,40.34
2023-02-11T01:12:19.098Z,40.59
2023-02-11T01:14:49.613Z,41.19
2023-02-11T01:17:19.865Z,41.08
2023-02-11T01:19:50.672Z,41.17
2023-02-11T01:22:18.017Z,41.12
2023-02-11T01:24:50.053Z,41.11
2023-02-11T01:27:18.177Z,40.68
2023-02-11T01:29:48.024Z,40.60
2023-02-11T01:32:15.617Z,40.80
2023-02-11T01:34:43.130Z,40.66
2023-02-11T01:37:10.478Z,40.30
2023-02-11T01:39:37.973Z,39.90
2023-02-11T01:42:06.135Z,39.96
2023-02-11T01:44:37.781Z,39.91
2023-02-11T01:47:06.786Z,40.21
2023-02-11T01:49:36.859Z,40.60
2023-02-11T01:52:07.347Z,40.63
2023-02-11T01:54:59.312Z,41.02
2023-02-11T01:57:30.406Z,40.86
2023-02-11T02:00:04.672Z,40.94
2023-02-11T02:03:01.144Z,41.07
2023-02-11T02:05:48.194Z,40.55
2023-02-11T02:08:23.657Z,41.00
2023-02-11T02:10:59.736Z,40.94
2023-02-11T02:13:30.895Z,41.12
2023-02-11T02:16:04.217Z,41.49
2023-02-11T02:18:51.512Z,41.57
2023-02-11T02:21:56.212Z,42.06
2023-02-11T02:24:26.359Z,41.47
2023-02-11T02:27:02.516Z,41.75
2023-02-11T02:30:02.980Z,41.73
2023-02-11T02:32:51.520Z,42.30
2023-02-11T02:35:48.679Z,42.43
2023-02-11T02:38:57.056Z,42.15
2023-02-11T02:41:40.203Z,42.30
2023-02-11T02:44:08.937Z,41.79
2023-02-11T02:46:37.326Z,41.99
2023-02-11T02:49:12.757Z,42.03
2023-02-11T02:52:16.279Z,41.99
2023-02-11T02:55:05.184Z,41.85
2023-02-11T02:58:09.102Z,42.43
2023-02-11T03:01:13.356Z,42.02
2023-02-11T03:04:00.528Z,42.17
2023-02-11T03:07:03.180Z,41.86
2023-02-11T03:09:45.338Z,41.62
2023-02-11T03:12:14.035Z,41.39
2023-02-11T03:14:42.263Z,41.11
2023-02-11T03:17:10.880Z,40.98
2023-02-11T03:19:44.268Z,41.44
2023-02-11T03:22:24.383Z,41.54
2023-02-11T03:24:52.091Z,41.29
2023-02-11T03:27:26.634Z,41.29
2023-02-11T03:30:07.045Z,41.54
2023-02-11T03:32:44.858Z,41.47
2023-02-11T03:35:33.147Z,41.24
2023-02-11T03:38:06.333Z,41.32
2023-02-11T03:40:38.701Z,41.12
2023-02-11T03:43:15.000Z,41.58
2023-02-11T03:45:42.381Z,41.38
2023-02-11T03:48:16.196Z,41.95
2023-02-11T03:50:48.583Z,41.67
2023-02-11T03:53:17.909Z,41.29
2023-02-11T03:55:48.102Z,41.44
2023-02-11T03:58:15.711Z,41.57
2023-02-11T04:00:46.915Z,41.92
2023-02-11T04:03:21.285Z,41.95
2023-02-11T04:06:04.338Z,41.85
2023-02-11T04:08:36.768Z,41.76
2023-02-11T04:11:08.350Z,41.46
2023-02-11T04:13:45.104Z,41.52
2023-02-11T04:16:16.753Z,41.97
2023-02-11T04:18:44.859Z,41.68
2023-02-11T04:21:25.552Z,42.07
2023-02-11T04:23:56.480Z,41.95
2023-02-11T04:26:32.854Z,42.09
2023-02-11T04:29:11.239Z,41.96
2023-02-11T04:31:44.450Z,41.96
2023-02-11T04:34:24.706Z,42.16
2023-02-11T04:36:55.314Z,42.21
2023-02-11T04:39:24.022Z,42.23
2023-02-11T04:44:39.310Z,42.73
2023-02-11T04:47:09.469Z,42.43
2023-02-11T04:49:46.492Z,42.50
2023-02-11T04:52:19.457Z,42.48
2023-02-11T04:54:59.432Z,42.60
2023-02-11T04:57:28.639Z,42.61
2023-02-11T04:59:56.462Z,42.93
2023-02-11T05:02:24.085Z,42.99
2023-02-11T05:04:53.943Z,42.87
2023-02-11T05:07:27.725Z,42.91
2023-02-11T05:09:58.643Z,43.56
2023-02-11T05:12:38.149Z,43.39
2023-02-11T05:15:06.835Z,43.37
2023-02-11T05:17:38.144Z,42.91
2023-02-11T05:20:25.122Z,43.10
2023-02-11T05:22:55.514Z,43.37
2023-02-11T05:25:26.517Z,43.14
2023-02-11T05:28:04.626Z,43.33
2023-02-11T05:30:37.649Z,43.30
2023-02-11T05:33:11.729Z,43.51
2023-02-11T05:35:52.605Z,43.17
2023-02-11T05:38:24.869Z,43.13
2023-02-11T05:41:02.413Z,43.86
2023-02-11T05:43:35.564Z,43.45
2023-02-11T05:46:18.584Z,44.03
2023-02-11T05:48:49.017Z,43.80
2023-02-11T05:51:19.860Z,43.63
2023-02-11T05:53:58.674Z,44.11
2023-02-11T05:56:36.238Z,44.10
2023-02-11T05:59:04.236Z,43.70
2023-02-11T06:01:32.352Z,43.54
2023-02-11T06:04:16.294Z,43.92
2023-02-11T06:06:52.148Z,44.26
2023-02-11T06:09:28.065Z,44.20
2023-02-11T06:12:08.431Z,43.82
2023-02-11T06:14:52.044Z,43.91
2023-02-11T06:17:26.162Z,43.85
2023-02-11T06:20:03.351Z,44.39
2023-02-11T06:22:35.084Z,44.48
2023-02-11T06:25:08.032Z,43.75
2023-02-11T06:27:46.714Z,44.77
2023-02-11T06:30:39.104Z,44.58
2023-02-11T06:33:16.624Z,44.55
2023-02-11T06:35:51.497Z,44.83
2023-02-11T06:38:25.364Z,44.05
2023-02-11T06:41:00.925Z,44.62
2023-02-11T06:43:40.615Z,44.13
2023-02-11T06:46:11.137Z,44.21
2023-02-11T06:48:51.193Z,44.07
2023-02-11T06:51:24.709Z,44.27
2023-02-11T06:53:55.721Z,45.23
2023-02-11T06:56:38.030Z,45.06
2023-02-11T06:59:06.705Z,44.43
2023-02-11T07:01:34.964Z,44.16
2023-02-11T07:04:07.763Z,44.51
2023-02-11T07:06:38.176Z,44.06
2023-02-11T07:09:09.772Z,44.45
2023-02-11T07:11:37.883Z,44.18
2023-02-11T07:14:11.750Z,45.01
2023-02-11T07:16:42.539Z,44.80
2023-02-11T07:19:10.708Z,44.67
2023-02-11T07:21:44.562Z,44.80
2023-02-11T07:24:13.714Z,44.39
2023-02-11T07:26:47.520Z,44.46
2023-02-11T07:29:21.460Z,44.43
2023-02-11T07:32:06.454Z,44.75
2023-02-11T07:34:39.512Z,44.59
2023-02-11T07:37:08.623Z,44.20
2023-02-11T07:39:44.379Z,44.76
2023-02-11T07:42:20.767Z,44.57
2023-02-11T07:44:51.548Z,44.09
2023-02-11T07:47:26.583Z,44.53
2023-02-11T07:49:57.454Z,44.38
2023-02-11T07:52:28.952Z,44.09
2023-02-11T07:55:04.699Z,44.07
2023-02-11T07:57:37.286Z,44.14
2023-02-11T08:00:21.194Z,44.48
2023-02-11T08:02:51.714Z,44.02
2023-02-11T08:05:31.772Z,44.49
2023-02-11T08:08:09.522Z,44.29
2023-02-11T08:10:38.638Z,43.77
2023-02-11T08:13:12.886Z,44.40
2023-02-11T08:15:43.863Z,43.95
2023-02-11T08:18:19.233Z,44.35
2023-02-11T08:23:28.572Z,43.75
2023-02-11T08:25:56.316Z,43.67
2023-02-11T08:28:23.939Z,43.88
2023-02-11T08:30:52.218Z,43.65
2023-02-11T08:33:24.520Z,43.44
2023-02-11T08:35:55.635Z,43.44
2023-02-11T08:38:30.491Z,43.25
2023-02-11T08:41:03.728Z,43.23
2023-02-11T08:43:38.513Z,43.49
2023-02-11T08:46:08.318Z,43.44
2023-02-11T08:48:39.117Z,43.41
2023-02-11T08:54:06.792Z,41.14
2023-02-11T08:56:34.505Z,40.27
2023-02-11T08:59:04.984Z,40.14
2023-02-11T09:01:39.458Z,39.47
2023-02-11T09:04:13.323Z,38.03
2023-02-11T09:06:41.894Z,37.60
2023-02-11T09:09:19.129Z,37.24
2023-02-11T09:11:50.064Z,36.95
2023-02-11T09:14:23.446Z,36.35
2023-02-11T09:17:02.926Z,35.79
2023-02-11T09:19:46.504Z,35.21
2023-02-11T09:22:29.914Z,34.87
2023-02-11T09:25:04.275Z,35.08
2023-02-11T09:27:39.093Z,34.49
2023-02-11T09:30:07.792Z,34.24
2023-02-11T09:32:36.179Z,33.88
2023-02-11T09:35:09.484Z,33.62
2023-02-11T09:38:06.642Z,32.77
2023-02-11T09:40:47.605Z,32.28
2023-02-11T09:43:52.512Z,31.83
2023-02-11T09:46:25.057Z,32.46
2023-02-11T09:49:06.651Z,31.54
2023-02-11T09:51:52.507Z,31.27
2023-02-11T09:54:54.750Z,31.14
2023-02-11T09:57:56.479Z,30.73
2023-02-11T10:00:31.801Z,30.87
2023-02-11T10:03:43.054Z,29.96
2023-02-11T10:09:50.243Z,29.57
2023-02-11T10:12:55.304Z,29.13
2023-02-11T10:15:57.329Z,28.95
2023-02-11T10:18:40.059Z,28.65
2023-02-11T10:21:32.272Z,28.64
2023-02-11T10:24:13.590Z,28.40
2023-02-11T10:26:42.438Z,28.57
2023-02-11T10:32:39.510Z,27.29
2023-02-11T10:35:19.336Z,26.94
2023-02-11T10:37:58.926Z,27.58
2023-02-11T10:40:33.159Z,27.71
2023-02-11T10:43:48.029Z,26.61
2023-02-11T10:49:52.094Z,26.91
2023-02-11T10:52:52.442Z,26.84
2023-02-11T10:55:31.062Z,26.51
2023-02-11T10:58:28.111Z,26.43
2023-02-11T11:01:08.040Z,25.87
2023-02-11T11:03:48.877Z,25.47
2023-02-11T11:06:34.553Z,24.89
2023-02-11T11:09:10.315Z,25.85
2023-02-11T11:11:54.325Z,24.94
2023-02-11T11:18:20.856Z,25.07
2023-02-11T11:21:12.968Z,24.46
2023-02-11T11:23:48.966Z,24.41
2023-02-11T11:26:47.605Z,23.38
2023-02-11T11:29:34.963Z,22.75
2023-02-11T11:32:19.557Z,22.53
2023-02-11T11:35:04.551Z,22.40
2023-02-11T11:38:07.052Z,21.73
2023-02-11T11:40:42.882Z,22.11
2023-02-11T11:43:13.502Z,21.03
2023-02-11T11:46:05.879Z,21.17
2023-02-11T11:48:52.767Z,21.15
2023-02-11T11:51:26.679Z,21.83
2023-02-11T11:54:09.271Z,21.51
2023-02-11T11:57:25.794Z,21.78
2023-02-11T11:59:59.958Z,23.11
2023-02-11T12:02:53.630Z,22.16
2023-02-11T12:05:55.566Z,22.13
2023-02-11T12:09:03.786Z,21.66
2023-02-11T12:15:14.883Z,22.27
2023-02-11T12:17:55.722Z,22.46
2023-02-11T12:20:35.862Z,21.90
2023-02-11T12:23:50.452Z,22.99
2023-02-11T12:26:29.893Z,22.67
2023-02-11T12:29:26.985Z,21.32
2023-02-11T12:32:21.740Z,22.03
2023-02-11T12:35:30.100Z,22.78
2023-02-11T12:38:37.036Z,23.19
2023-02-11T12:41:57.800Z,22.80
2023-02-11T12:44:34.046Z,22.85
2023-02-11T12:47:37.441Z,22.77
2023-02-11T12:50:40.599Z,23.09
2023-02-11T12:53:39.813Z,23.41
2023-02-11T12:56:43.713Z,22.40
2023-02-11T12:59:55.355Z,23.58
2023-02-11T13:02:41.667Z,23.17
2023-02-11T13:05:41.508Z,23.64
2023-02-11T13:08:23.819Z,23.26
2023-02-11T13:11:11.954Z,23.13
2023-02-11T13:14:16.049Z,23.45
2023-02-11T13:16:51.055Z,23.37
2023-02-11T13:19:54.723Z,22.85
2023-02-11T13:23:00.465Z,22.82
2023-02-11T13:26:02.270Z,22.77
2023-02-11T13:32:50.260Z,21.63
2023-02-11T13:35:39.428Z,23.60
2023-02-11T13:38:45.228Z,22.76
2023-02-11T13:41:40.429Z,23.26
2023-02-11T13:44:33.813Z,22.52
2023-02-11T13:47:33.266Z,23.04
2023-02-11T13:50:17.606Z,22.69
2023-02-11T13:53:16.224Z,22.79
2023-02-11T13:58:51.652Z,21.48
2023-02-11T14:05:27.283Z,21.88
2023-02-11T14:11:59.118Z,23.11
2023-02-11T14:14:36.770Z,23.27
2023-02-11T14:17:34.590Z,23.45
2023-02-11T14:20:44.918Z,23.82
2023-02-11T14:23:36.663Z,24.10
2023-02-11T14:26:54.107Z,23.40
2023-02-11T14:29:30.903Z,24.13
2023-02-11T14:36:14.692Z,24.64
2023-02-11T14:39:07.550Z,24.26
2023-02-11T14:41:42.744Z,24.34
2023-02-11T14:44:46.326Z,24.86
2023-02-11T14:47:37.166Z,23.89
2023-02-11T14:50:17.291Z,25.22
2023-02-11T14:52:51.857Z,26.81
2023-02-11T15:01:37.935Z,26.69
2023-02-11T15:04:14.074Z,27.19
2023-02-11T15:06:58.651Z,27.01
2023-02-11T15:09:52.373Z,28.05
2023-02-11T15:12:24.649Z,28.23
2023-02-11T15:14:57.800Z,29.86
2023-02-11T15:17:33.217Z,29.30
2023-02-11T15:20:02.967Z,29.00
2023-02-11T15:22:40.715Z,29.03
2023-02-11T15:25:17.786Z,29.53
2023-02-11T15:27:56.308Z,29.59
2023-02-11T15:30:26.935Z,29.65
2023-02-11T15:33:03.929Z,29.52
2023-02-11T15:35:44.746Z,29.16
2023-02-11T15:38:14.000Z,29.02
2023-02-11T15:40:53.878Z,28.83
2023-02-11T15:43:23.495Z,29.45
2023-02-11T15:46:02.369Z,30.39
2023-02-11T15:48:38.031Z,30.40
2023-02-11T15:51:36.668Z,30.27
2023-02-11T15:54:20.304Z,31.04
2023-02-11T15:56:52.913Z,30.09
2023-02-11T15:59:38.628Z,31.34
2023-02-11T16:02:23.620Z,30.91
2023-02-11T16:05:09.377Z,31.16
2023-02-11T16:07:50.741Z,30.91
2023-02-11T16:10:29.795Z,30.70
2023-02-11T16:13:01.969Z,30.21
2023-02-11T16:15:42.134Z,29.31
2023-02-11T16:18:37.292Z,30.22
2023-02-11T16:21:21.140Z,29.45
2023-02-11T16:24:01.607Z,28.83
2023-02-11T16:27:04.382Z,28.75
2023-02-11T16:29:39.451Z,28.00
2023-02-11T16:32:33.606Z,28.15
2023-02-11T16:35:11.847Z,28.42
2023-02-11T16:37:51.560Z,28.20
2023-02-11T16:40:21.631Z,29.10
2023-02-11T16:42:50.119Z,28.54
2023-02-11T16:45:24.632Z,28.76
2023-02-11T16:47:58.638Z,28.64
2023-02-11T16:50:36.694Z,28.85
2023-02-11T16:53:10.602Z,29.41
2023-02-11T16:55:44.470Z,29.74
2023-02-11T16:58:27.789Z,29.32
2023-02-11T17:01:02.532Z,28.98
2023-02-11T17:03:47.253Z,29.11
2023-02-11T17:06:26.263Z,28.41
2023-02-11T17:08:58.494Z,28.94
2023-02-11T17:11:30.649Z,28.70
2023-02-11T17:13:59.628Z,28.41
2023-02-11T17:16:37.660Z,28.59
2023-02-11T17:19:07.194Z,28.77
2023-02-11T17:21:40.607Z,29.20
2023-02-11T17:24:14.266Z,28.89
2023-02-11T17:26:53.681Z,29.62
2023-02-11T17:29:24.224Z,29.28
2023-02-11T17:31:58.174Z,29.64
2023-02-11T17:34:35.077Z,29.67
2023-02-11T17:37:13.619Z,29.79
2023-02-11T17:39:47.490Z,29.55
2023-02-11T17:42:19.817Z,29.84
2023-02-11T17:44:55.007Z,29.96
2023-02-11T17:47:22.514Z,30.33
2023-02-11T17:49:50.269Z,30.54
2023-02-11T17:52:18.522Z,30.86
2023-02-11T17:54:46.159Z,31.22
2023-02-11T17:57:13.997Z,31.76
2023-02-11T17:59:44.350Z,31.21
2023-02-11T18:02:13.150Z,32.19
2023-02-11T18:04:43.718Z,31.92
2023-02-11T18:07:13.462Z,32.03
2023-02-11T18:09:44.245Z,31.86
2023-02-11T18:12:25.801Z,32.42
2023-02-11T18:14:59.868Z,32.52
2023-02-11T18:17:46.356Z,32.65
2023-02-11T18:20:29.773Z,32.33
2023-02-11T18:23:10.251Z,32.60
2023-02-11T18:25:58.100Z,32.98
2023-02-11T18:28:32.619Z,32.77
2023-02-11T18:37:16.115Z,33.79
2023-02-11T18:39:48.952Z,34.04
2023-02-11T18:42:24.301Z,34.38
2023-02-11T18:45:00.411Z,34.21
2023-02-11T18:47:34.815Z,33.75
2023-02-11T18:50:18.703Z,34.46
2023-02-11T18:52:52.836Z,34.38
2023-02-11T18:55:49.384Z,35.07
2023-02-11T18:58:26.130Z,35.18
2023-02-11T19:01:03.991Z,35.09
2023-02-11T19:03:41.937Z,34.89
2023-02-11T19:06:29.779Z,35.65
2023-02-11T19:09:20.642Z,35.71
2023-02-11T19:12:17.744Z,35.85
2023-02-11T19:15:26.157Z,36.34
2023-02-11T19:18:03.359Z,35.76
2023-02-11T19:20:36.188Z,36.62
2023-02-11T19:23:20.374Z,35.95
2023-02-11T19:26:14.917Z,36.97
2023-02-11T19:28:45.446Z,36.03
2023-02-11T19:31:22.332Z,36.71
2023-02-11T19:33:54.706Z,35.95
2023-02-11T19:36:42.277Z,36.60
2023-02-11T19:39:33.124Z,36.72
2023-02-11T19:42:02.534Z,36.13
2023-02-11T19:44:45.666Z,37.05
2023-02-11T19:47:34.209Z,37.21
2023-02-11T19:50:19.287Z,36.80
2023-02-11T19:52:54.528Z,36.67
2023-02-11T19:55:37.330Z,36.62
2023-02-11T19:58:46.328Z,37.54
2023-02-11T20:01:32.855Z,37.39
2023-02-11T20:04:08.790Z,37.10
2023-02-11T20:06:57.484Z,37.76
2023-02-11T20:09:29.422Z,37.27
2023-02-11T20:12:55.011Z,37.81
2023-02-11T20:15:33.875Z,37.60
2023-02-11T20:18:02.105Z,37.13
2023-02-11T20:20:46.262Z,37.61
2023-02-11T20:23:30.765Z,37.55
2023-02-11T20:26:08.435Z,37.78
2023-02-11T20:28:39.710Z,37.53
2023-02-11T20:31:08.218Z,37.43
2023-02-11T20:33:39.025Z,37.52
2023-02-11T20:36:19.195Z,37.89
2023-02-11T20:38:50.419Z,38.01
2023-02-11T20:41:36.956Z,38.32
2023-02-11T20:44:25.935Z,38.07
2023-02-11T20:47:16.620Z,37.73
2023-02-11T20:49:50.280Z,38.14
2023-02-11T20:52:49.519Z,38.51
2023-02-11T20:55:25.361Z,38.34
2023-02-11T20:58:01.985Z,38.49
2023-02-11T21:00:52.626Z,39.09
2023-02-11T21:03:44.822Z,38.55
2023-02-11T21:06:21.754Z,38.49
2023-02-11T21:09:03.772Z,39.23
2023-02-11T21:11:40.176Z,38.70
2023-02-11T21:14:24.550Z,38.89
2023-02-11T21:17:10.270Z,39.14
2023-02-11T21:19:44.971Z,39.08
2023-02-11T21:22:18.603Z,38.86
2023-02-11T21:24:57.973Z,39.55
2023-02-11T21:30:35.943Z,39.89
2023-02-11T21:33:33.491Z,40.21
2023-02-11T21:36:08.697Z,40.27
2023-02-11T21:38:51.924Z,40.25
2023-02-11T21:41:30.590Z,40.09
2023-02-11T21:44:14.316Z,40.23
2023-02-11T21:46:44.061Z,40.00
2023-02-11T21:52:16.338Z,40.56
2023-02-11T21:54:54.848Z,40.50
2023-02-11T21:57:28.767Z,41.13
2023-02-11T22:00:10.939Z,40.75
2023-02-11T22:02:58.874Z,41.08
2023-02-11T22:05:32.021Z,41.58
2023-02-11T22:08:16.687Z,41.70
2023-02-11T22:10:58.095Z,41.44
2023-02-11T22:13:51.592Z,41.99
2023-02-11T22:16:31.856Z,41.86
2023-02-11T22:19:15.281Z,42.24
2023-02-11T22:21:58.714Z,43.18
2023-02-11T22:24:47.228Z,42.48
2023-02-11T22:27:20.172Z,42.75
2023-02-11T22:29:56.872Z,43.25
2023-02-11T22:32:30.714Z,42.78
2023-02-11T22:35:13.997Z,42.41
2023-02-11T22:38:00.824Z,42.97
2023-02-11T22:40:47.436Z,43.42
2023-02-11T22:43:31.260Z,43.09
2023-02-11T22:46:28.148Z,44.44
2023-02-11T22:49:07.565Z,43.27
2023-02-11T22:51:50.615Z,44.17
2023-02-11T22:54:25.058Z,43.52
2023-02-11T22:56:59.594Z,44.11
2023-02-11T22:59:47.759Z,43.96
2023-02-11T23:02:20.009Z,43.84
2023-02-11T23:04:56.397Z,43.75
2023-02-11T23:07:28.390Z,43.95
2023-02-11T23:09:59.226Z,43.68
2023-02-11T23:12:33.451Z,44.13
2023-02-11T23:15:05.277Z,44.34
2023-02-11T23:17:41.672Z,43.95
2023-02-11T23:20:26.516Z,44.64
2023-02-11T23:22:59.143Z,44.36
2023-02-11T23:25:26.600Z,44.16
2023-02-11T23:27:57.519Z,44.02
2023-02-11T23:30:41.844Z,44.51
2023-02-11T23:33:11.887Z,44.07
2023-02-11T23:35:46.656Z,44.60
2023-02-11T23:38:21.646Z,44.58
2023-02-11T23:43:42.357Z,44.08
2023-02-11T23:49:22.132Z,44.95
2023-02-11T23:51:58.553Z,45.06
2023-02-11T23:54:32.451Z,45.10
